Saint Petersburg, Florida
Current Conditions -  °F | °C
As of 8:53 AM on Tuesday 21 Oct 2014 (Local Time) from KSPG Reporting Station
Clear Clear  
Wind Chill: 75°   Ceiling: Unl
Heat Index: 75°   Visibility: 10mi
Dew Point: 65°   Wind: 7mph
Humidity: 71%   Direction: 10°N
Pressure: 29.94"   Gusts: NA
Location:  27.77°N, 82.63°W
Report Text: KSPG 211253Z 01006KT 10SM CLR 24/18 A2994 RMK AO2 SLP138 T02390183
Loading
Personal Weather Stations






























Interactive Weather Map New forecast layout! Learn more

10-Day Weather Forecast

Advertisements
Track Severe Weather on mobile